sensor_id;sensor_type;location;lat;lon;timestamp;pressure;altitude;pressure_sealevel;temperature;humidity
72055;BME280;59936;51.490;5.436;2023-03-18T00:00:26;100618.75;;;12.90;64.03
72055;BME280;59936;51.490;5.436;2023-03-18T00:02:52;100612.72;;;12.88;60.32
72055;BME280;59936;51.490;5.436;2023-03-18T00:05:18;100612.97;;;12.78;64.15
72055;BME280;59936;51.490;5.436;2023-03-18T00:07:44;100623.53;;;12.79;60.54
72055;BME280;59936;51.490;5.436;2023-03-18T00:10:10;100623.06;;;12.76;60.58
72055;BME280;59936;51.490;5.436;2023-03-18T00:12:39;100623.69;;;12.63;64.08
72055;BME280;59936;51.490;5.436;2023-03-18T00:15:07;100622.03;;;12.62;60.85
72055;BME280;59936;51.490;5.436;2023-03-18T00:17:34;100623.41;;;12.58;60.76
72055;BME280;59936;51.490;5.436;2023-03-18T00:20:00;100622.22;;;12.53;60.91
72055;BME280;59936;51.490;5.436;2023-03-18T00:22:25;100628.56;;;12.37;62.57
72055;BME280;59936;51.490;5.436;2023-03-18T00:24:51;100629.06;;;12.40;61.32
72055;BME280;59936;51.490;5.436;2023-03-18T00:27:17;100640.69;;;12.33;63.02
72055;BME280;59936;51.490;5.436;2023-03-18T00:29:43;100641.13;;;12.44;61.40
72055;BME280;59936;51.490;5.436;2023-03-18T00:32:08;100639.63;;;12.42;65.64
72055;BME280;59936;51.490;5.436;2023-03-18T00:34:34;100646.97;;;12.48;61.32
72055;BME280;59936;51.490;5.436;2023-03-18T00:37:00;100643.97;;;12.43;64.32
72055;BME280;59936;51.490;5.436;2023-03-18T00:39:26;100641.38;;;12.49;61.50
72055;BME280;59936;51.490;5.436;2023-03-18T00:41:55;100638.78;;;12.41;64.52
72055;BME280;59936;51.490;5.436;2023-03-18T00:44:22;100639.44;;;12.43;61.55
72055;BME280;59936;51.490;5.436;2023-03-18T00:46:48;100645.00;;;12.42;61.39
72055;BME280;59936;51.490;5.436;2023-03-18T00:49:13;100655.91;;;12.40;61.66
72055;BME280;59936;51.490;5.436;2023-03-18T00:51:39;100661.63;;;12.37;67.72
72055;BME280;59936;51.490;5.436;2023-03-18T00:54:06;100659.06;;;12.44;62.47
72055;BME280;59936;51.490;5.436;2023-03-18T00:56:33;100661.94;;;12.42;68.24
72055;BME280;59936;51.490;5.436;2023-03-18T00:58:59;100663.72;;;12.50;62.05
72055;BME280;59936;51.490;5.436;2023-03-18T01:01:25;100661.19;;;12.57;61.81
72055;BME280;59936;51.490;5.436;2023-03-18T01:03:52;100662.34;;;12.54;65.62
72055;BME280;59936;51.490;5.436;2023-03-18T01:06:20;100658.97;;;12.60;62.78
72055;BME280;59936;51.490;5.436;2023-03-18T01:08:47;100658.78;;;12.62;62.43
72055;BME280;59936;51.490;5.436;2023-03-18T01:11:14;100656.28;;;12.60;62.67
72055;BME280;59936;51.490;5.436;2023-03-18T01:13:40;100655.28;;;12.61;62.38
72055;BME280;59936;51.490;5.436;2023-03-18T01:16:08;100663.50;;;12.60;64.42
72055;BME280;59936;51.490;5.436;2023-03-18T01:18:35;100649.66;;;12.48;64.18
72055;BME280;59936;51.490;5.436;2023-03-18T01:21:02;100653.22;;;12.18;70.27
72055;BME280;59936;51.490;5.436;2023-03-18T01:23:29;100654.03;;;11.95;65.96
72055;BME280;59936;51.490;5.436;2023-03-18T01:25:56;100656.97;;;11.77;70.87
72055;BME280;59936;51.490;5.436;2023-03-18T01:28:23;100651.16;;;11.66;67.77
72055;BME280;59936;51.490;5.436;2023-03-18T01:30:49;100658.09;;;11.52;71.15
72055;BME280;59936;51.490;5.436;2023-03-18T01:33:15;100657.34;;;11.35;71.46
72055;BME280;59936;51.490;5.436;2023-03-18T01:35:41;100672.94;;;11.24;72.57
72055;BME280;59936;51.490;5.436;2023-03-18T01:38:07;100671.59;;;11.20;80.97
72055;BME280;59936;51.490;5.436;2023-03-18T01:40:35;100654.22;;;11.07;73.45
72055;BME280;59936;51.490;5.436;2023-03-18T01:45:38;100663.78;;;11.02;76.24
72055;BME280;59936;51.490;5.436;2023-03-18T01:48:04;100660.56;;;10.98;73.31
72055;BME280;59936;51.490;5.436;2023-03-18T01:50:31;100663.44;;;10.97;71.53
72055;BME280;59936;51.490;5.436;2023-03-18T01:53:01;100661.94;;;10.94;77.48
72055;BME280;59936;51.490;5.436;2023-03-18T01:55:29;100653.06;;;10.94;70.42
72055;BME280;59936;51.490;5.436;2023-03-18T01:57:56;100650.72;;;10.91;70.31
72055;BME280;59936;51.490;5.436;2023-03-18T02:00:23;100652.56;;;10.90;70.97
72055;BME280;59936;51.490;5.436;2023-03-18T02:02:50;100653.38;;;10.91;70.69
72055;BME280;59936;51.490;5.436;2023-03-18T02:05:23;100663.59;;;10.95;70.91
72055;BME280;59936;51.490;5.436;2023-03-18T02:07:49;100663.59;;;10.95;70.91
72055;BME280;59936;51.490;5.436;2023-03-18T02:10:17;100659.59;;;10.91;72.91
72055;BME280;59936;51.490;5.436;2023-03-18T02:12:50;100652.72;;;10.89;79.15
72055;BME280;59936;51.490;5.436;2023-03-18T02:15:19;100654.91;;;10.85;72.85
72055;BME280;59936;51.490;5.436;2023-03-18T02:17:51;100657.06;;;10.90;70.55
72055;BME280;59936;51.490;5.436;2023-03-18T02:23:24;100665.59;;;10.93;74.04
72055;BME280;59936;51.490;5.436;2023-03-18T02:26:00;100672.81;;;10.93;73.71
72055;BME280;59936;51.490;5.436;2023-03-18T02:28:29;100666.63;;;10.92;73.37
72055;BME280;59936;51.490;5.436;2023-03-18T02:30:58;100668.63;;;10.90;72.70
72055;BME280;59936;51.490;5.436;2023-03-18T02:33:34;100675.16;;;10.88;75.85
72055;BME280;59936;51.490;5.436;2023-03-18T02:36:04;100673.47;;;10.87;77.32
72055;BME280;59936;51.490;5.436;2023-03-18T02:38:32;100678.34;;;10.83;78.67
72055;BME280;59936;51.490;5.436;2023-03-18T02:40:58;100682.34;;;10.79;77.04
72055;BME280;59936;51.490;5.436;2023-03-18T02:43:30;100684.84;;;10.81;78.04
72055;BME280;59936;51.490;5.436;2023-03-18T02:48:22;100684.56;;;10.75;75.23
72055;BME280;59936;51.490;5.436;2023-03-18T02:50:50;100676.31;;;10.77;81.85
72055;BME280;59936;51.490;5.436;2023-03-18T02:53:16;100683.72;;;10.75;76.00
72055;BME280;59936;51.490;5.436;2023-03-18T02:55:42;100690.38;;;10.79;76.21
72055;BME280;59936;51.490;5.436;2023-03-18T02:58:08;100699.25;;;10.80;76.67
72055;BME280;59936;51.490;5.436;2023-03-18T03:00:34;100699.25;;;10.80;76.67
72055;BME280;59936;51.490;5.436;2023-03-18T03:03:00;100690.72;;;10.76;77.85
72055;BME280;59936;51.490;5.436;2023-03-18T03:05:26;100695.56;;;10.81;75.86
72055;BME280;59936;51.490;5.436;2023-03-18T03:07:52;100703.78;;;10.87;85.18
72055;BME280;59936;51.490;5.436;2023-03-18T03:10:18;100700.09;;;10.80;77.80
72055;BME280;59936;51.490;5.436;2023-03-18T03:12:44;100710.63;;;10.82;76.48
72055;BME280;59936;51.490;5.436;2023-03-18T03:15:10;100700.75;;;10.82;79.96
72055;BME280;59936;51.490;5.436;2023-03-18T03:17:36;100706.97;;;10.83;74.95
72055;BME280;59936;51.490;5.436;2023-03-18T03:20:03;100706.97;;;10.83;74.65
72055;BME280;59936;51.490;5.436;2023-03-18T03:22:29;100705.13;;;10.83;82.31
72055;BME280;59936;51.490;5.436;2023-03-18T03:24:55;100705.94;;;10.84;76.68
72055;BME280;59936;51.490;5.436;2023-03-18T03:27:21;100712.16;;;10.84;81.85
72055;BME280;59936;51.490;5.436;2023-03-18T03:29:47;100705.13;;;10.83;74.74
72055;BME280;59936;51.490;5.436;2023-03-18T03:32:12;100711.16;;;10.85;82.47
72055;BME280;59936;51.490;5.436;2023-03-18T03:34:38;100712.47;;;10.81;75.40
72055;BME280;59936;51.490;5.436;2023-03-18T03:37:04;100709.13;;;10.79;78.34
72055;BME280;59936;51.490;5.436;2023-03-18T03:39:30;100717.00;;;10.81;75.82
72055;BME280;59936;51.490;5.436;2023-03-18T03:41:55;100714.47;;;10.79;80.23
72055;BME280;59936;51.490;5.436;2023-03-18T03:44:21;100717.34;;;10.77;74.94
72055;BME280;59936;51.490;5.436;2023-03-18T03:46:47;100722.03;;;10.75;78.07
72055;BME280;59936;51.490;5.436;2023-03-18T03:49:13;100720.38;;;10.74;74.14
72055;BME280;59936;51.490;5.436;2023-03-18T03:51:38;100730.72;;;10.77;75.70
72055;BME280;59936;51.490;5.436;2023-03-18T03:54:04;100730.72;;;10.77;75.70
72055;BME280;59936;51.490;5.436;2023-03-18T03:56:30;100726.38;;;10.76;83.46
72055;BME280;59936;51.490;5.436;2023-03-18T03:58:56;100725.88;;;10.73;76.73
72055;BME280;59936;51.490;5.436;2023-03-18T04:01:22;100726.72;;;10.73;82.57
72055;BME280;59936;51.490;5.436;2023-03-18T04:03:48;100725.22;;;10.71;76.04
72055;BME280;59936;51.490;5.436;2023-03-18T04:06:14;100727.72;;;10.72;74.00
72055;BME280;59936;51.490;5.436;2023-03-18T04:08:40;100732.75;;;10.75;80.23
72055;BME280;59936;51.490;5.436;2023-03-18T04:11:05;100732.94;;;10.74;73.16
72055;BME280;59936;51.490;5.436;2023-03-18T04:13:32;100732.09;;;10.73;80.79
72055;BME280;59936;51.490;5.436;2023-03-18T04:15:58;100736.59;;;10.73;74.50
72055;BME280;59936;51.490;5.436;2023-03-18T04:18:24;100737.44;;;10.73;73.84
72055;BME280;59936;51.490;5.436;2023-03-18T04:20:50;100736.44;;;10.74;75.17
72055;BME280;59936;51.490;5.436;2023-03-18T04:23:16;100737.78;;;10.70;78.49
72055;BME280;59936;51.490;5.436;2023-03-18T04:25:42;100735.78;;;10.72;75.88
72055;BME280;59936;51.490;5.436;2023-03-18T04:28:08;100736.25;;;10.76;74.74
72055;BME280;59936;51.490;5.436;2023-03-18T04:30:34;100738.59;;;10.79;77.04
72055;BME280;59936;51.490;5.436;2023-03-18T04:32:59;100730.88;;;10.76;81.88
72055;BME280;59936;51.490;5.436;2023-03-18T04:35:25;100736.25;;;10.76;75.23
72055;BME280;59936;51.490;5.436;2023-03-18T04:37:51;100738.44;;;10.81;84.01
72055;BME280;59936;51.490;5.436;2023-03-18T04:40:17;100745.78;;;10.78;75.35
72055;BME280;59936;51.490;5.436;2023-03-18T04:42:43;100740.78;;;10.75;77.12
72055;BME280;59936;51.490;5.436;2023-03-18T04:45:09;100742.09;;;10.80;76.14
72055;BME280;59936;51.490;5.436;2023-03-18T04:47:35;100743.09;;;10.78;80.50
72055;BME280;59936;51.490;5.436;2023-03-18T04:50:00;100759.34;;;10.77;76.71
72055;BME280;59936;51.490;5.436;2023-03-18T04:52:26;100749.47;;;10.77;81.34
72055;BME280;59936;51.490;5.436;2023-03-18T04:54:52;100752.31;;;10.76;76.55
72055;BME280;59936;51.490;5.436;2023-03-18T04:57:18;100753.66;;;10.80;83.30
72055;BME280;59936;51.490;5.436;2023-03-18T04:59:43;100754.66;;;10.79;76.40
72055;BME280;59936;51.490;5.436;2023-03-18T05:02:09;100759.34;;;10.77;79.33
72055;BME280;59936;51.490;5.436;2023-03-18T05:04:36;100764.53;;;10.78;76.28
72055;BME280;59936;51.490;5.436;2023-03-18T05:07:02;100763.88;;;10.85;84.82
72055;BME280;59936;51.490;5.436;2023-03-18T05:09:28;100761.84;;;10.78;77.90
72055;BME280;59936;51.490;5.436;2023-03-18T05:11:53;100762.38;;;10.82;83.93
72055;BME280;59936;51.490;5.436;2023-03-18T05:14:19;100767.22;;;10.78;75.74
72055;BME280;59936;51.490;5.436;2023-03-18T05:16:45;100774.75;;;10.83;83.63
72055;BME280;59936;51.490;5.436;2023-03-18T05:19:11;100767.06;;;10.80;78.03
72055;BME280;59936;51.490;5.436;2023-03-18T05:21:36;100769.56;;;10.82;83.09
72055;BME280;59936;51.490;5.436;2023-03-18T05:24:03;100763.22;;;10.74;78.44
72055;BME280;59936;51.490;5.436;2023-03-18T05:26:28;100754.50;;;10.81;85.51
72055;BME280;59936;51.490;5.436;2023-03-18T05:28:54;100754.84;;;10.69;81.53
72055;BME280;59936;51.490;5.436;2023-03-18T05:31:20;100749.66;;;10.68;85.58
72055;BME280;59936;51.490;5.436;2023-03-18T05:33:46;100758.50;;;10.60;80.91
72055;BME280;59936;51.490;5.436;2023-03-18T05:36:12;100757.97;;;10.57;79.85
72055;BME280;59936;51.490;5.436;2023-03-18T05:38:38;100758.16;;;10.63;85.81
72055;BME280;59936;51.490;5.436;2023-03-18T05:41:03;100757.81;;;10.58;79.52
72055;BME280;59936;51.490;5.436;2023-03-18T05:43:29;100750.13;;;10.55;83.50
72055;BME280;59936;51.490;5.436;2023-03-18T05:45:55;100757.66;;;10.52;78.03
72055;BME280;59936;51.490;5.436;2023-03-18T05:48:20;100761.19;;;10.52;82.70
72055;BME280;59936;51.490;5.436;2023-03-18T05:50:46;100769.69;;;10.56;80.44
72055;BME280;59936;51.490;5.436;2023-03-18T05:53:12;100772.88;;;10.59;82.57
72055;BME280;59936;51.490;5.436;2023-03-18T05:55:38;100790.63;;;10.60;82.78
72055;BME280;59936;51.490;5.436;2023-03-18T05:58:05;100790.63;;;10.60;82.78
72055;BME280;59936;51.490;5.436;2023-03-18T06:00:31;100787.13;;;10.52;76.68
72055;BME280;59936;51.490;5.436;2023-03-18T06:02:57;100801.34;;;10.52;78.71
72055;BME280;59936;51.490;5.436;2023-03-18T06:05:24;100800.34;;;10.53;86.29
72055;BME280;59936;51.490;5.436;2023-03-18T06:07:51;100805.19;;;10.50;81.77
72055;BME280;59936;51.490;5.436;2023-03-18T06:10:17;100794.97;;;10.45;77.59
72055;BME280;59936;51.490;5.436;2023-03-18T06:12:43;100800.63;;;10.42;79.83
72055;BME280;59936;51.490;5.436;2023-03-18T06:15:10;100798.75;;;10.34;80.80
72055;BME280;59936;51.490;5.436;2023-03-18T06:17:36;100795.44;;;10.32;85.51
72055;BME280;59936;51.490;5.436;2023-03-18T06:20:05;100784.84;;;10.23;80.73
72055;BME280;59936;51.490;5.436;2023-03-18T06:22:31;100793.38;;;10.18;79.77
72055;BME280;59936;51.490;5.436;2023-03-18T06:24:57;100793.38;;;10.18;79.91
72055;BME280;59936;51.490;5.436;2023-03-18T06:27:23;100795.88;;;10.20;77.13
72055;BME280;59936;51.490;5.436;2023-03-18T06:29:49;100793.88;;;10.22;79.10
72055;BME280;59936;51.490;5.436;2023-03-18T06:32:15;100796.25;;;10.25;83.57
72055;BME280;59936;51.490;5.436;2023-03-18T06:34:41;100801.91;;;10.22;79.71
72055;BME280;59936;51.490;5.436;2023-03-18T06:37:06;100804.94;;;10.27;85.09
72055;BME280;59936;51.490;5.436;2023-03-18T06:39:32;100804.63;;;10.30;79.70
72055;BME280;59936;51.490;5.436;2023-03-18T06:41:58;100813.50;;;10.38;84.39
72055;BME280;59936;51.490;5.436;2023-03-18T06:44:24;100818.22;;;10.45;79.39
72055;BME280;59936;51.490;5.436;2023-03-18T06:46:49;100819.72;;;10.55;84.36
72055;BME280;59936;51.490;5.436;2023-03-18T06:49:15;100815.72;;;10.59;77.46
72055;BME280;59936;51.490;5.436;2023-03-18T06:51:42;100815.75;;;10.67;82.69
72055;BME280;59936;51.490;5.436;2023-03-18T06:54:08;100820.13;;;10.85;77.09
72055;BME280;59936;51.490;5.436;2023-03-18T06:56:35;100817.66;;;10.99;76.37
72055;BME280;59936;51.490;5.436;2023-03-18T06:59:02;100828.91;;;11.35;74.63
72055;BME280;59936;51.490;5.436;2023-03-18T07:01:28;100823.47;;;11.76;73.63
72055;BME280;59936;51.490;5.436;2023-03-18T07:03:53;100823.72;;;12.05;73.39
72055;BME280;59936;51.490;5.436;2023-03-18T07:06:19;100819.38;;;12.43;78.46
72055;BME280;59936;51.490;5.436;2023-03-18T07:08:45;100824.66;;;12.52;72.44
72055;BME280;59936;51.490;5.436;2023-03-18T07:11:11;100824.84;;;12.89;74.98
72055;BME280;59936;51.490;5.436;2023-03-18T07:13:36;100827.94;;;13.01;71.53
72055;BME280;59936;51.490;5.436;2023-03-18T07:16:02;100837.31;;;13.42;74.20
72055;BME280;59936;51.490;5.436;2023-03-18T07:18:28;100834.59;;;13.28;70.86
72055;BME280;59936;51.490;5.436;2023-03-18T07:20:54;100840.97;;;13.12;76.49
72055;BME280;59936;51.490;5.436;2023-03-18T07:23:19;100844.84;;;13.47;71.09
72055;BME280;59936;51.490;5.436;2023-03-18T07:25:45;100840.63;;;13.82;74.04
72055;BME280;59936;51.490;5.436;2023-03-18T07:28:11;100842.69;;;13.95;69.50
72055;BME280;59936;51.490;5.436;2023-03-18T07:30:37;100846.44;;;14.08;72.27
72055;BME280;59936;51.490;5.436;2023-03-18T07:33:03;100846.91;;;14.27;69.47
72055;BME280;59936;51.490;5.436;2023-03-18T07:35:29;100852.59;;;15.04;67.01
72055;BME280;59936;51.490;5.436;2023-03-18T07:37:54;100852.59;;;15.04;67.01
72055;BME280;59936;51.490;5.436;2023-03-18T07:40:20;100857.06;;;15.88;65.02
72055;BME280;59936;51.490;5.436;2023-03-18T07:42:46;100857.06;;;15.88;65.02
72055;BME280;59936;51.490;5.436;2023-03-18T07:45:12;100856.56;;;15.78;66.51
72055;BME280;59936;51.490;5.436;2023-03-18T07:47:37;100864.91;;;15.55;66.25
72055;BME280;59936;51.490;5.436;2023-03-18T07:50:04;100861.03;;;15.93;65.18
72055;BME280;59936;51.490;5.436;2023-03-18T07:52:30;100861.88;;;15.93;65.41
72055;BME280;59936;51.490;5.436;2023-03-18T07:54:56;100869.81;;;15.24;67.19
72055;BME280;59936;51.490;5.436;2023-03-18T07:57:22;100871.75;;;15.51;66.93
72055;BME280;59936;51.490;5.436;2023-03-18T07:59:48;100875.66;;;16.05;66.03
72055;BME280;59936;51.490;5.436;2023-03-18T08:02:14;100875.66;;;16.05;66.03
72055;BME280;59936;51.490;5.436;2023-03-18T08:04:41;100866.47;;;16.34;65.16
72055;BME280;59936;51.490;5.436;2023-03-18T08:07:07;100849.94;;;17.24;63.22
72055;BME280;59936;51.490;5.436;2023-03-18T08:09:33;100851.22;;;17.81;61.89
72055;BME280;59936;51.490;5.436;2023-03-18T08:11:59;100845.78;;;18.65;60.04
72055;BME280;59936;51.490;5.436;2023-03-18T08:14:25;100844.53;;;18.68;59.89
72055;BME280;59936;51.490;5.436;2023-03-18T08:16:50;100842.75;;;18.48;59.94
72055;BME280;59936;51.490;5.436;2023-03-18T08:19:16;100846.44;;;18.60;60.37
72055;BME280;59936;51.490;5.436;2023-03-18T08:21:42;100840.84;;;18.93;59.75
72055;BME280;59936;51.490;5.436;2023-03-18T08:24:08;100840.03;;;18.86;59.76
72055;BME280;59936;51.490;5.436;2023-03-18T08:26:35;100853.00;;;18.78;60.22
72055;BME280;59936;51.490;5.436;2023-03-18T08:29:01;100849.09;;;19.05;59.80
72055;BME280;59936;51.490;5.436;2023-03-18T08:31:26;100850.13;;;19.42;58.83
72055;BME280;59936;51.490;5.436;2023-03-18T08:33:52;100850.28;;;19.72;58.52
72055;BME280;59936;51.490;5.436;2023-03-18T08:36:18;100860.25;;;18.46;60.97
72055;BME280;59936;51.490;5.436;2023-03-18T08:38:44;100865.75;;;18.77;60.29
72055;BME280;59936;51.490;5.436;2023-03-18T08:41:10;100873.94;;;18.64;60.21
72055;BME280;59936;51.490;5.436;2023-03-18T08:43:36;100865.94;;;18.82;60.39
72055;BME280;59936;51.490;5.436;2023-03-18T08:46:02;100865.19;;;19.38;59.02
72055;BME280;59936;51.490;5.436;2023-03-18T08:48:27;100878.53;;;18.70;60.25
72055;BME280;59936;51.490;5.436;2023-03-18T08:50:53;100866.16;;;19.19;59.21
72055;BME280;59936;51.490;5.436;2023-03-18T08:53:19;100864.31;;;19.44;58.32
72055;BME280;59936;51.490;5.436;2023-03-18T08:55:46;100870.19;;;19.66;58.01
72055;BME280;59936;51.490;5.436;2023-03-18T08:58:12;100865.19;;;19.88;57.70
72055;BME280;59936;51.490;5.436;2023-03-18T09:00:39;100867.81;;;20.19;56.76
72055;BME280;59936;51.490;5.436;2023-03-18T09:03:06;100867.47;;;19.91;57.38
72055;BME280;59936;51.490;5.436;2023-03-18T09:05:32;100871.59;;;20.55;56.35
72055;BME280;59936;51.490;5.436;2023-03-18T09:07:58;100871.59;;;20.55;56.35
72055;BME280;59936;51.490;5.436;2023-03-18T09:10:25;100871.06;;;20.94;55.35
72055;BME280;59936;51.490;5.436;2023-03-18T09:12:51;100868.38;;;21.24;54.93
72055;BME280;59936;51.490;5.436;2023-03-18T09:15:18;100877.59;;;20.93;55.31
72055;BME280;59936;51.490;5.436;2023-03-18T09:17:44;100876.38;;;20.41;56.79
72055;BME280;59936;51.490;5.436;2023-03-18T09:20:12;100885.41;;;20.17;57.16
72055;BME280;59936;51.490;5.436;2023-03-18T09:22:40;100878.56;;;20.32;56.88
72055;BME280;59936;51.490;5.436;2023-03-18T09:25:07;100879.78;;;20.12;57.11
72055;BME280;59936;51.490;5.436;2023-03-18T09:27:33;100879.78;;;20.12;57.11
72055;BME280;59936;51.490;5.436;2023-03-18T09:29:59;100881.69;;;20.84;55.77
72055;BME280;59936;51.490;5.436;2023-03-18T09:32:25;100888.91;;;21.09;54.87
72055;BME280;59936;51.490;5.436;2023-03-18T09:34:52;100884.88;;;20.26;56.37
72055;BME280;59936;51.490;5.436;2023-03-18T09:37:18;100891.69;;;20.36;55.89
72055;BME280;59936;51.490;5.436;2023-03-18T09:39:44;100891.69;;;20.36;55.89
72055;BME280;59936;51.490;5.436;2023-03-18T09:45:00;100875.06;;;19.26;58.20
72055;BME280;59936;51.490;5.436;2023-03-18T09:50:29;100874.75;;;20.88;51.59
72055;BME280;59936;51.490;5.436;2023-03-18T09:55:46;100875.75;;;21.06;53.07
72055;BME280;59936;51.490;5.436;2023-03-18T09:58:28;100870.09;;;21.60;52.71
72055;BME280;59936;51.490;5.436;2023-03-18T10:00:59;100865.09;;;21.34;47.57
72055;BME280;59936;51.490;5.436;2023-03-18T10:06:16;100868.03;;;21.03;50.83
72055;BME280;59936;51.490;5.436;2023-03-18T10:11:31;100874.78;;;20.70;50.23
72055;BME280;59936;51.490;5.436;2023-03-18T10:16:56;100878.56;;;20.99;54.33
72055;BME280;59936;51.490;5.436;2023-03-18T10:19:26;100876.00;;;21.46;48.41
72055;BME280;59936;51.490;5.436;2023-03-18T10:24:41;100875.44;;;20.84;51.55
72055;BME280;59936;51.490;5.436;2023-03-18T10:27:31;100882.75;;;21.43;53.64
72055;BME280;59936;51.490;5.436;2023-03-18T10:30:26;100878.66;;;20.92;54.54
72055;BME280;59936;51.490;5.436;2023-03-18T10:35:52;100886.38;;;20.04;51.53
72055;BME280;59936;51.490;5.436;2023-03-18T10:38:25;100877.91;;;19.69;54.07
72055;BME280;59936;51.490;5.436;2023-03-18T10:40:53;100871.63;;;19.44;55.55
72055;BME280;59936;51.490;5.436;2023-03-18T10:43:22;100881.88;;;19.91;56.00
72055;BME280;59936;51.490;5.436;2023-03-18T10:45:59;100877.25;;;19.42;56.05
72055;BME280;59936;51.490;5.436;2023-03-18T10:48:30;100867.16;;;19.56;51.78
72055;BME280;59936;51.490;5.436;2023-03-18T10:53:43;100866.66;;;19.03;56.35
72055;BME280;59936;51.490;5.436;2023-03-18T10:56:12;100867.47;;;18.65;55.59
72055;BME280;59936;51.490;5.436;2023-03-18T10:58:41;100860.56;;;17.98;56.61
72055;BME280;59936;51.490;5.436;2023-03-18T11:01:09;100861.03;;;17.62;57.84
72055;BME280;59936;51.490;5.436;2023-03-18T11:03:46;100871.66;;;17.64;57.74
72055;BME280;59936;51.490;5.436;2023-03-18T11:08:47;100869.56;;;17.52;56.95
72055;BME280;59936;51.490;5.436;2023-03-18T11:11:28;100878.72;;;17.58;57.20
72055;BME280;59936;51.490;5.436;2023-03-18T11:13:56;100872.69;;;17.56;55.32
72055;BME280;59936;51.490;5.436;2023-03-18T11:16:45;100869.72;;;17.24;57.01
72055;BME280;59936;51.490;5.436;2023-03-18T11:19:28;100874.91;;;17.19;54.71
72055;BME280;59936;51.490;5.436;2023-03-18T11:24:36;100874.03;;;16.99;57.08
72055;BME280;59936;51.490;5.436;2023-03-18T11:27:02;100881.25;;;16.85;57.52
72055;BME280;59936;51.490;5.436;2023-03-18T11:29:32;100899.25;;;16.52;58.34
72055;BME280;59936;51.490;5.436;2023-03-18T11:31:59;100897.72;;;16.43;58.40
72055;BME280;59936;51.490;5.436;2023-03-18T11:34:30;100892.38;;;16.21;58.78
72055;BME280;59936;51.490;5.436;2023-03-18T11:37:05;100902.91;;;16.10;59.26
72055;BME280;59936;51.490;5.436;2023-03-18T11:39:34;100899.31;;;16.03;59.21
72055;BME280;59936;51.490;5.436;2023-03-18T11:42:00;100905.94;;;15.94;59.11
72055;BME280;59936;51.490;5.436;2023-03-18T11:44:29;100905.94;;;15.94;59.11
72055;BME280;59936;51.490;5.436;2023-03-18T11:47:02;100896.94;;;15.86;59.08
72055;BME280;59936;51.490;5.436;2023-03-18T11:49:29;100893.97;;;15.81;58.95
72055;BME280;59936;51.490;5.436;2023-03-18T11:52:13;100902.13;;;15.88;58.73
72055;BME280;59936;51.490;5.436;2023-03-18T11:55:03;100906.13;;;15.92;59.02
72055;BME280;59936;51.490;5.436;2023-03-18T12:00:28;100907.97;;;15.92;60.63
72055;BME280;59936;51.490;5.436;2023-03-18T12:03:25;100908.47;;;16.02;59.05
72055;BME280;59936;51.490;5.436;2023-03-18T12:06:36;100905.53;;;16.31;59.49
72055;BME280;59936;51.490;5.436;2023-03-18T12:09:16;100906.06;;;16.48;58.20
72055;BME280;59936;51.490;5.436;2023-03-18T12:12:07;100907.34;;;16.24;58.98
72055;BME280;59936;51.490;5.436;2023-03-18T12:14:44;100910.63;;;15.85;60.06
72055;BME280;59936;51.490;5.436;2023-03-18T12:17:23;100904.81;;;15.60;59.98
72055;BME280;59936;51.490;5.436;2023-03-18T12:20:16;100910.56;;;15.50;60.56
72055;BME280;59936;51.490;5.436;2023-03-18T12:27:50;100907.22;;;15.76;59.52
72055;BME280;59936;51.490;5.436;2023-03-18T12:36:19;100909.34;;;16.09;60.32
72055;BME280;59936;51.490;5.436;2023-03-18T12:39:05;100898.41;;;16.23;59.73
72055;BME280;59936;51.490;5.436;2023-03-18T12:42:02;100903.63;;;16.25;58.86
72055;BME280;59936;51.490;5.436;2023-03-18T12:47:41;100916.88;;;16.20;58.37
72055;BME280;59936;51.490;5.436;2023-03-18T12:55:27;100909.34;;;16.09;58.87
72055;BME280;59936;51.490;5.436;2023-03-18T12:58:01;100904.22;;;16.20;58.73
72055;BME280;59936;51.490;5.436;2023-03-18T13:00:34;100904.31;;;16.34;58.96
72055;BME280;59936;51.490;5.436;2023-03-18T13:03:49;100899.09;;;16.32;59.00
72055;BME280;59936;51.490;5.436;2023-03-18T13:05:57;100900.00;;;16.11;59.59
72055;BME280;59936;51.490;5.436;2023-03-18T13:08:44;100896.56;;;15.96;61.06
72055;BME280;59936;51.490;5.436;2023-03-18T13:11:25;100892.72;;;15.56;64.46
72055;BME280;59936;51.490;5.436;2023-03-18T13:13:58;100893.66;;;15.42;62.56
72055;BME280;59936;51.490;5.436;2023-03-18T13:16:26;100876.88;;;15.46;62.42
72055;BME280;59936;51.490;5.436;2023-03-18T13:18:55;100881.41;;;15.67;61.61
72055;BME280;59936;51.490;5.436;2023-03-18T13:21:25;100878.91;;;15.66;62.24
72055;BME280;59936;51.490;5.436;2023-03-18T13:27:05;100878.78;;;15.74;61.67
72055;BME280;59936;51.490;5.436;2023-03-18T13:35:03;100872.75;;;15.72;62.25
72055;BME280;59936;51.490;5.436;2023-03-18T13:38:00;100873.41;;;15.80;61.81
72055;BME280;59936;51.490;5.436;2023-03-18T13:40:44;100875.28;;;15.80;62.83
72055;BME280;59936;51.490;5.436;2023-03-18T13:43:18;100877.94;;;15.73;64.73
72055;BME280;59936;51.490;5.436;2023-03-18T13:45:49;100873.31;;;15.67;62.96
72055;BME280;59936;51.490;5.436;2023-03-18T13:48:30;100888.63;;;15.60;62.35
72055;BME280;59936;51.490;5.436;2023-03-18T13:50:57;100887.72;;;15.53;62.38
72055;BME280;59936;51.490;5.436;2023-03-18T13:53:27;100885.34;;;15.65;61.44
72055;BME280;59936;51.490;5.436;2023-03-18T13:58:42;100886.91;;;16.08;60.33
72055;BME280;59936;51.490;5.436;2023-03-18T14:06:22;100869.56;;;17.52;57.39
72055;BME280;59936;51.490;5.436;2023-03-18T14:08:50;100862.22;;;17.26;57.59
72055;BME280;59936;51.490;5.436;2023-03-18T14:13:52;100868.91;;;17.24;57.86
72055;BME280;59936;51.490;5.436;2023-03-18T14:16:21;100862.22;;;17.20;57.64